sensor_id;sensor_type;location;lat;lon;timestamp;P1;durP1;ratioP1;P2;durP2;ratioP2
45318;SDS011;31057;48.498;32.260;2022-10-17T00:00:38;41.55;;;25.38;;
45318;SDS011;31057;48.498;32.260;2022-10-17T00:03:39;52.47;;;28.75;;
45318;SDS011;31057;48.498;32.260;2022-10-17T00:06:41;42.58;;;25.50;;
45318;SDS011;31057;48.498;32.260;2022-10-17T00:09:43;37.78;;;23.70;;
45318;SDS011;31057;48.498;32.260;2022-10-17T00:12:45;40.28;;;23.67;;
45318;SDS011;31057;48.498;32.260;2022-10-17T00:15:50;35.67;;;21.35;;
45318;SDS011;31057;48.498;32.260;2022-10-17T00:18:53;34.00;;;19.30;;
45318;SDS011;31057;48.498;32.260;2022-10-17T00:21:55;30.45;;;18.58;;
45318;SDS011;31057;48.498;32.260;2022-10-17T00:24:57;28.08;;;17.58;;
45318;SDS011;31057;48.498;32.260;2022-10-17T00:27:59;32.97;;;18.58;;
45318;SDS011;31057;48.498;32.260;2022-10-17T00:31:02;32.30;;;20.52;;
45318;SDS011;31057;48.498;32.260;2022-10-17T00:34:05;32.85;;;21.30;;
45318;SDS011;31057;48.498;32.260;2022-10-17T00:37:07;37.38;;;22.30;;
45318;SDS011;31057;48.498;32.260;2022-10-17T00:40:10;35.50;;;21.92;;
45318;SDS011;31057;48.498;32.260;2022-10-17T00:43:16;40.83;;;23.30;;
45318;SDS011;31057;48.498;32.260;2022-10-17T00:46:19;36.92;;;23.20;;
45318;SDS011;31057;48.498;32.260;2022-10-17T00:49:22;35.28;;;22.08;;
45318;SDS011;31057;48.498;32.260;2022-10-17T00:52:27;38.55;;;23.98;;
45318;SDS011;31057;48.498;32.260;2022-10-17T00:55:32;36.42;;;23.70;;
45318;SDS011;31057;48.498;32.260;2022-10-17T00:58:37;45.83;;;26.30;;
45318;SDS011;31057;48.498;32.260;2022-10-17T01:01:40;38.05;;;25.35;;
45318;SDS011;31057;48.498;32.260;2022-10-17T01:04:48;42.67;;;24.75;;
45318;SDS011;31057;48.498;32.260;2022-10-17T01:07:55;37.80;;;22.58;;
45318;SDS011;31057;48.498;32.260;2022-10-17T01:11:00;37.58;;;23.38;;
45318;SDS011;31057;48.498;32.260;2022-10-17T01:17:28;34.92;;;20.65;;
45318;SDS011;31057;48.498;32.260;2022-10-17T01:28:38;36.13;;;23.92;;
45318;SDS011;31057;48.498;32.260;2022-10-17T01:32:17;32.03;;;20.30;;
45318;SDS011;31057;48.498;32.260;2022-10-17T01:35:41;39.97;;;20.80;;
45318;SDS011;31057;48.498;32.260;2022-10-17T01:38:55;40.38;;;25.13;;
45318;SDS011;31057;48.498;32.260;2022-10-17T01:42:22;40.97;;;23.92;;
45318;SDS011;31057;48.498;32.260;2022-10-17T01:49:22;37.05;;;22.58;;
45318;SDS011;31057;48.498;32.260;2022-10-17T01:52:30;36.67;;;24.10;;
45318;SDS011;31057;48.498;32.260;2022-10-17T01:55:52;36.22;;;23.27;;
45318;SDS011;31057;48.498;32.260;2022-10-17T01:59:06;44.35;;;23.48;;
45318;SDS011;31057;48.498;32.260;2022-10-17T02:02:13;40.63;;;24.55;;
45318;SDS011;31057;48.498;32.260;2022-10-17T02:05:17;40.97;;;24.60;;
45318;SDS011;31057;48.498;32.260;2022-10-17T02:08:25;46.97;;;28.50;;
45318;SDS011;31057;48.498;32.260;2022-10-17T02:11:28;43.70;;;27.73;;
45318;SDS011;31057;48.498;32.260;2022-10-17T02:14:33;47.67;;;29.42;;
45318;SDS011;31057;48.498;32.260;2022-10-17T02:21:02;52.72;;;27.98;;
45318;SDS011;31057;48.498;32.260;2022-10-17T02:27:34;47.35;;;25.67;;
45318;SDS011;31057;48.498;32.260;2022-10-17T02:30:54;47.78;;;26.20;;
45318;SDS011;31057;48.498;32.260;2022-10-17T02:34:01;38.65;;;25.30;;
45318;SDS011;31057;48.498;32.260;2022-10-17T02:37:18;44.35;;;25.48;;
45318;SDS011;31057;48.498;32.260;2022-10-17T02:40:26;38.13;;;25.40;;
45318;SDS011;31057;48.498;32.260;2022-10-17T02:43:29;41.03;;;25.27;;
45318;SDS011;31057;48.498;32.260;2022-10-17T02:46:31;38.97;;;25.13;;
45318;SDS011;31057;48.498;32.260;2022-10-17T02:49:37;46.95;;;25.90;;
45318;SDS011;31057;48.498;32.260;2022-10-17T02:52:45;43.50;;;24.35;;
45318;SDS011;31057;48.498;32.260;2022-10-17T02:55:59;36.97;;;23.70;;
45318;SDS011;31057;48.498;32.260;2022-10-17T02:59:05;38.92;;;23.42;;
45318;SDS011;31057;48.498;32.260;2022-10-17T03:02:09;37.08;;;23.25;;
45318;SDS011;31057;48.498;32.260;2022-10-17T03:05:15;40.47;;;23.60;;
45318;SDS011;31057;48.498;32.260;2022-10-17T03:08:19;41.33;;;24.30;;
45318;SDS011;31057;48.498;32.260;2022-10-17T03:11:21;38.63;;;25.08;;
45318;SDS011;31057;48.498;32.260;2022-10-17T03:14:23;31.50;;;19.08;;
45318;SDS011;31057;48.498;32.260;2022-10-17T03:17:25;35.70;;;22.83;;
45318;SDS011;31057;48.498;32.260;2022-10-17T03:20:27;37.17;;;22.98;;
45318;SDS011;31057;48.498;32.260;2022-10-17T03:23:29;34.97;;;22.77;;
45318;SDS011;31057;48.498;32.260;2022-10-17T03:26:31;35.03;;;21.38;;
45318;SDS011;31057;48.498;32.260;2022-10-17T03:29:33;37.17;;;23.75;;
45318;SDS011;31057;48.498;32.260;2022-10-17T03:32:34;37.75;;;23.02;;
45318;SDS011;31057;48.498;32.260;2022-10-17T03:35:37;36.30;;;21.17;;
45318;SDS011;31057;48.498;32.260;2022-10-17T03:38:40;40.03;;;21.70;;
45318;SDS011;31057;48.498;32.260;2022-10-17T03:41:43;35.55;;;21.50;;
45318;SDS011;31057;48.498;32.260;2022-10-17T03:44:44;34.60;;;20.85;;
45318;SDS011;31057;48.498;32.260;2022-10-17T03:47:46;33.85;;;20.90;;
45318;SDS011;31057;48.498;32.260;2022-10-17T03:50:48;39.33;;;22.20;;
45318;SDS011;31057;48.498;32.260;2022-10-17T03:53:50;30.98;;;18.15;;
45318;SDS011;31057;48.498;32.260;2022-10-17T03:56:52;35.47;;;21.35;;
45318;SDS011;31057;48.498;32.260;2022-10-17T03:59:54;35.53;;;20.38;;
45318;SDS011;31057;48.498;32.260;2022-10-17T04:02:56;34.72;;;20.70;;
45318;SDS011;31057;48.498;32.260;2022-10-17T04:05:59;32.33;;;21.23;;
45318;SDS011;31057;48.498;32.260;2022-10-17T04:09:02;34.58;;;19.38;;
45318;SDS011;31057;48.498;32.260;2022-10-17T04:12:05;32.53;;;19.65;;
45318;SDS011;31057;48.498;32.260;2022-10-17T04:15:07;31.40;;;20.13;;
45318;SDS011;31057;48.498;32.260;2022-10-17T04:18:10;32.50;;;20.58;;
45318;SDS011;31057;48.498;32.260;2022-10-17T04:21:12;33.67;;;20.52;;
45318;SDS011;31057;48.498;32.260;2022-10-17T04:24:14;31.20;;;20.03;;
45318;SDS011;31057;48.498;32.260;2022-10-17T04:27:16;28.85;;;19.05;;
45318;SDS011;31057;48.498;32.260;2022-10-17T04:30:18;35.63;;;20.85;;
45318;SDS011;31057;48.498;32.260;2022-10-17T04:33:19;32.35;;;20.30;;
45318;SDS011;31057;48.498;32.260;2022-10-17T04:36:21;30.73;;;21.85;;
45318;SDS011;31057;48.498;32.260;2022-10-17T04:39:23;36.53;;;20.38;;
45318;SDS011;31057;48.498;32.260;2022-10-17T04:42:27;41.15;;;22.73;;
45318;SDS011;31057;48.498;32.260;2022-10-17T04:45:30;37.55;;;23.85;;
45318;SDS011;31057;48.498;32.260;2022-10-17T04:48:32;32.50;;;20.27;;
45318;SDS011;31057;48.498;32.260;2022-10-17T04:51:33;33.30;;;20.30;;
45318;SDS011;31057;48.498;32.260;2022-10-17T04:54:35;29.30;;;19.52;;
45318;SDS011;31057;48.498;32.260;2022-10-17T04:57:37;38.78;;;21.50;;
45318;SDS011;31057;48.498;32.260;2022-10-17T05:00:39;31.30;;;19.90;;
45318;SDS011;31057;48.498;32.260;2022-10-17T05:03:41;34.40;;;19.60;;
45318;SDS011;31057;48.498;32.260;2022-10-17T05:06:44;34.22;;;19.33;;
45318;SDS011;31057;48.498;32.260;2022-10-17T05:09:46;31.55;;;19.35;;
45318;SDS011;31057;48.498;32.260;2022-10-17T05:12:48;31.38;;;19.05;;
45318;SDS011;31057;48.498;32.260;2022-10-17T05:15:51;30.35;;;18.17;;
45318;SDS011;31057;48.498;32.260;2022-10-17T05:18:54;26.60;;;18.67;;
45318;SDS011;31057;48.498;32.260;2022-10-17T05:21:57;36.58;;;17.85;;
45318;SDS011;31057;48.498;32.260;2022-10-17T05:24:59;31.30;;;18.55;;
45318;SDS011;31057;48.498;32.260;2022-10-17T05:28:01;31.98;;;19.05;;
45318;SDS011;31057;48.498;32.260;2022-10-17T05:31:03;51.88;;;25.92;;
45318;SDS011;31057;48.498;32.260;2022-10-17T05:34:06;72.65;;;39.05;;
45318;SDS011;31057;48.498;32.260;2022-10-17T05:37:14;67.53;;;43.40;;
45318;SDS011;31057;48.498;32.260;2022-10-17T05:40:16;48.00;;;26.88;;
45318;SDS011;31057;48.498;32.260;2022-10-17T05:43:18;45.83;;;26.95;;
45318;SDS011;31057;48.498;32.260;2022-10-17T05:46:19;74.63;;;41.15;;
45318;SDS011;31057;48.498;32.260;2022-10-17T05:49:22;57.33;;;35.00;;
45318;SDS011;31057;48.498;32.260;2022-10-17T05:52:44;60.03;;;32.42;;
45318;SDS011;31057;48.498;32.260;2022-10-17T05:55:53;57.55;;;35.47;;
45318;SDS011;31057;48.498;32.260;2022-10-17T05:58:59;50.80;;;32.67;;
45318;SDS011;31057;48.498;32.260;2022-10-17T06:02:01;55.72;;;32.20;;
45318;SDS011;31057;48.498;32.260;2022-10-17T06:05:03;55.05;;;34.72;;
45318;SDS011;31057;48.498;32.260;2022-10-17T06:08:05;62.88;;;37.17;;
45318;SDS011;31057;48.498;32.260;2022-10-17T06:11:07;67.03;;;36.38;;
45318;SDS011;31057;48.498;32.260;2022-10-17T06:17:12;56.97;;;33.70;;
45318;SDS011;31057;48.498;32.260;2022-10-17T06:20:16;64.18;;;34.80;;
45318;SDS011;31057;48.498;32.260;2022-10-17T06:23:18;63.08;;;35.35;;
45318;SDS011;31057;48.498;32.260;2022-10-17T06:26:20;55.38;;;33.50;;
45318;SDS011;31057;48.498;32.260;2022-10-17T06:29:22;65.32;;;34.80;;
45318;SDS011;31057;48.498;32.260;2022-10-17T06:32:24;78.00;;;37.60;;
45318;SDS011;31057;48.498;32.260;2022-10-17T06:35:27;58.88;;;37.10;;
45318;SDS011;31057;48.498;32.260;2022-10-17T06:38:29;64.38;;;36.28;;
45318;SDS011;31057;48.498;32.260;2022-10-17T06:41:31;63.63;;;38.92;;
45318;SDS011;31057;48.498;32.260;2022-10-17T06:44:33;69.93;;;38.72;;
45318;SDS011;31057;48.498;32.260;2022-10-17T06:47:35;75.78;;;43.03;;
45318;SDS011;31057;48.498;32.260;2022-10-17T06:50:37;65.28;;;42.15;;
45318;SDS011;31057;48.498;32.260;2022-10-17T06:53:39;57.58;;;38.80;;
45318;SDS011;31057;48.498;32.260;2022-10-17T06:56:41;64.88;;;35.58;;
45318;SDS011;31057;48.498;32.260;2022-10-17T06:59:43;49.67;;;27.42;;
45318;SDS011;31057;48.498;32.260;2022-10-17T07:02:45;51.28;;;24.88;;
45318;SDS011;31057;48.498;32.260;2022-10-17T07:05:50;35.67;;;23.30;;
45318;SDS011;31057;48.498;32.260;2022-10-17T07:08:53;42.42;;;25.85;;
45318;SDS011;31057;48.498;32.260;2022-10-17T07:11:56;35.35;;;21.30;;
45318;SDS011;31057;48.498;32.260;2022-10-17T07:14:58;31.23;;;20.60;;
45318;SDS011;31057;48.498;32.260;2022-10-17T07:18:00;41.30;;;25.60;;
45318;SDS011;31057;48.498;32.260;2022-10-17T07:21:02;47.53;;;27.02;;
45318;SDS011;31057;48.498;32.260;2022-10-17T07:24:05;36.47;;;24.50;;
45318;SDS011;31057;48.498;32.260;2022-10-17T07:27:07;33.97;;;24.83;;
45318;SDS011;31057;48.498;32.260;2022-10-17T07:30:09;41.83;;;26.23;;
45318;SDS011;31057;48.498;32.260;2022-10-17T07:33:11;33.22;;;23.23;;
45318;SDS011;31057;48.498;32.260;2022-10-17T07:36:13;40.85;;;27.17;;
45318;SDS011;31057;48.498;32.260;2022-10-17T07:39:16;34.92;;;23.42;;
45318;SDS011;31057;48.498;32.260;2022-10-17T07:42:18;35.95;;;23.60;;
45318;SDS011;31057;48.498;32.260;2022-10-17T07:45:20;37.38;;;24.15;;
45318;SDS011;31057;48.498;32.260;2022-10-17T07:48:24;32.15;;;23.98;;
45318;SDS011;31057;48.498;32.260;2022-10-17T07:51:26;33.83;;;24.07;;
45318;SDS011;31057;48.498;32.260;2022-10-17T07:54:29;35.83;;;23.25;;
45318;SDS011;31057;48.498;32.260;2022-10-17T07:57:31;34.65;;;24.13;;
45318;SDS011;31057;48.498;32.260;2022-10-17T08:00:33;35.38;;;24.40;;
45318;SDS011;31057;48.498;32.260;2022-10-17T08:03:36;31.83;;;23.05;;
45318;SDS011;31057;48.498;32.260;2022-10-17T08:06:38;36.05;;;23.42;;
45318;SDS011;31057;48.498;32.260;2022-10-17T08:09:39;32.30;;;21.85;;
45318;SDS011;31057;48.498;32.260;2022-10-17T08:12:42;35.00;;;23.25;;
45318;SDS011;31057;48.498;32.260;2022-10-17T08:15:44;32.17;;;20.20;;
45318;SDS011;31057;48.498;32.260;2022-10-17T08:18:48;36.63;;;21.75;;
45318;SDS011;31057;48.498;32.260;2022-10-17T08:21:50;35.88;;;22.13;;
45318;SDS011;31057;48.498;32.260;2022-10-17T08:24:52;30.07;;;20.77;;
45318;SDS011;31057;48.498;32.260;2022-10-17T08:27:54;29.20;;;19.95;;
45318;SDS011;31057;48.498;32.260;2022-10-17T08:31:00;32.50;;;18.33;;
45318;SDS011;31057;48.498;32.260;2022-10-17T08:34:07;34.13;;;21.15;;
45318;SDS011;31057;48.498;32.260;2022-10-17T08:37:09;26.67;;;21.42;;
45318;SDS011;31057;48.498;32.260;2022-10-17T08:40:20;32.95;;;21.55;;
45318;SDS011;31057;48.498;32.260;2022-10-17T08:43:48;30.75;;;19.52;;
45318;SDS011;31057;48.498;32.260;2022-10-17T08:46:52;25.90;;;17.65;;
45318;SDS011;31057;48.498;32.260;2022-10-17T08:50:00;24.98;;;15.80;;
45318;SDS011;31057;48.498;32.260;2022-10-17T08:56:25;28.17;;;16.45;;
45318;SDS011;31057;48.498;32.260;2022-10-17T08:59:49;23.53;;;16.33;;
45318;SDS011;31057;48.498;32.260;2022-10-17T09:06:18;17.27;;;10.30;;
45318;SDS011;31057;48.498;32.260;2022-10-17T09:12:53;12.27;;;9.65;;
45318;SDS011;31057;48.498;32.260;2022-10-17T09:20:03;14.00;;;8.32;;
45318;SDS011;31057;48.498;32.260;2022-10-17T09:23:18;11.38;;;7.88;;
45318;SDS011;31057;48.498;32.260;2022-10-17T09:26:25;13.27;;;7.28;;
45318;SDS011;31057;48.498;32.260;2022-10-17T09:29:29;8.70;;;7.35;;
45318;SDS011;31057;48.498;32.260;2022-10-17T09:32:39;15.63;;;8.30;;
45318;SDS011;31057;48.498;32.260;2022-10-17T09:35:43;13.05;;;8.40;;
45318;SDS011;31057;48.498;32.260;2022-10-17T09:38:49;15.35;;;8.48;;
45318;SDS011;31057;48.498;32.260;2022-10-17T09:41:58;14.52;;;8.80;;
45318;SDS011;31057;48.498;32.260;2022-10-17T09:45:17;14.60;;;7.95;;
45318;SDS011;31057;48.498;32.260;2022-10-17T09:48:30;11.27;;;7.47;;
45318;SDS011;31057;48.498;32.260;2022-10-17T09:51:42;8.77;;;6.78;;
45318;SDS011;31057;48.498;32.260;2022-10-17T09:54:45;12.13;;;7.80;;
45318;SDS011;31057;48.498;32.260;2022-10-17T10:00:57;8.18;;;6.95;;
45318;SDS011;31057;48.498;32.260;2022-10-17T10:04:24;12.65;;;6.40;;
45318;SDS011;31057;48.498;32.260;2022-10-17T10:07:35;9.00;;;5.90;;
45318;SDS011;31057;48.498;32.260;2022-10-17T10:10:38;12.05;;;7.78;;
45318;SDS011;31057;48.498;32.260;2022-10-17T10:13:43;10.05;;;6.85;;
45318;SDS011;31057;48.498;32.260;2022-10-17T10:16:48;10.27;;;6.63;;
45318;SDS011;31057;48.498;32.260;2022-10-17T10:19:51;10.98;;;6.18;;
45318;SDS011;31057;48.498;32.260;2022-10-17T10:23:03;15.93;;;7.37;;
45318;SDS011;31057;48.498;32.260;2022-10-17T10:26:37;9.90;;;7.03;;
45318;SDS011;31057;48.498;32.260;2022-10-17T10:29:49;11.63;;;6.60;;
45318;SDS011;31057;48.498;32.260;2022-10-17T10:32:52;10.45;;;5.68;;
45318;SDS011;31057;48.498;32.260;2022-10-17T10:36:00;7.10;;;5.15;;
45318;SDS011;31057;48.498;32.260;2022-10-17T10:39:04;12.25;;;6.57;;
45318;SDS011;31057;48.498;32.260;2022-10-17T10:42:19;9.20;;;5.43;;
45318;SDS011;31057;48.498;32.260;2022-10-17T10:51:53;11.65;;;6.82;;
45318;SDS011;31057;48.498;32.260;2022-10-17T10:55:00;10.68;;;6.43;;
45318;SDS011;31057;48.498;32.260;2022-10-17T10:58:31;9.73;;;6.72;;
45318;SDS011;31057;48.498;32.260;2022-10-17T11:01:51;16.35;;;7.47;;
45318;SDS011;31057;48.498;32.260;2022-10-17T11:04:55;13.77;;;7.03;;
45318;SDS011;31057;48.498;32.260;2022-10-17T11:11:35;11.13;;;6.25;;
45318;SDS011;31057;48.498;32.260;2022-10-17T11:24:31;10.73;;;5.13;;
45318;SDS011;31057;48.498;32.260;2022-10-17T11:27:38;8.07;;;5.28;;
45318;SDS011;31057;48.498;32.260;2022-10-17T11:30:42;8.73;;;5.00;;
45318;SDS011;31057;48.498;32.260;2022-10-17T11:37:04;11.75;;;5.50;;
45318;SDS011;31057;48.498;32.260;2022-10-17T11:40:16;10.50;;;5.40;;
45318;SDS011;31057;48.498;32.260;2022-10-17T11:43:30;11.40;;;5.47;;
45318;SDS011;31057;48.498;32.260;2022-10-17T11:46:36;12.35;;;5.70;;
45318;SDS011;31057;48.498;32.260;2022-10-17T11:49:41;10.60;;;6.07;;
45318;SDS011;31057;48.498;32.260;2022-10-17T11:52:53;10.10;;;6.10;;
45318;SDS011;31057;48.498;32.260;2022-10-17T11:56:00;7.32;;;5.60;;
45318;SDS011;31057;48.498;32.260;2022-10-17T12:03:18;11.88;;;4.97;;
45318;SDS011;31057;48.498;32.260;2022-10-17T12:06:10;8.18;;;5.28;;
45318;SDS011;31057;48.498;32.260;2022-10-17T12:09:19;10.27;;;4.75;;
45318;SDS011;31057;48.498;32.260;2022-10-17T12:12:54;10.35;;;5.25;;
45318;SDS011;31057;48.498;32.260;2022-10-17T12:15:56;12.55;;;4.75;;
45318;SDS011;31057;48.498;32.260;2022-10-17T12:19:32;7.60;;;5.10;;
45318;SDS011;31057;48.498;32.260;2022-10-17T12:22:35;7.50;;;3.67;;
45318;SDS011;31057;48.498;32.260;2022-10-17T12:29:04;6.25;;;3.47;;
45318;SDS011;31057;48.498;32.260;2022-10-17T12:32:29;6.38;;;3.70;;
45318;SDS011;31057;48.498;32.260;2022-10-17T12:36:35;7.45;;;4.13;;
45318;SDS011;31057;48.498;32.260;2022-10-17T12:42:30;8.38;;;4.10;;
45318;SDS011;31057;48.498;32.260;2022-10-17T12:45:46;15.18;;;4.85;;
45318;SDS011;31057;48.498;32.260;2022-10-17T12:48:58;12.05;;;4.15;;
45318;SDS011;31057;48.498;32.260;2022-10-17T12:55:23;6.25;;;3.70;;
45318;SDS011;31057;48.498;32.260;2022-10-17T12:58:25;10.35;;;3.90;;
45318;SDS011;31057;48.498;32.260;2022-10-17T13:01:29;12.27;;;3.92;;
45318;SDS011;31057;48.498;32.260;2022-10-17T13:04:34;10.07;;;3.58;;
45318;SDS011;31057;48.498;32.260;2022-10-17T13:07:37;6.55;;;4.20;;
45318;SDS011;31057;48.498;32.260;2022-10-17T13:10:44;11.48;;;4.68;;
45318;SDS011;31057;48.498;32.260;2022-10-17T13:13:53;9.27;;;4.53;;
45318;SDS011;31057;48.498;32.260;2022-10-17T13:16:59;8.57;;;4.38;;
45318;SDS011;31057;48.498;32.260;2022-10-17T13:20:03;16.88;;;7.45;;
45318;SDS011;31057;48.498;32.260;2022-10-17T13:23:28;10.85;;;6.47;;
45318;SDS011;31057;48.498;32.260;2022-10-17T13:26:43;8.38;;;3.83;;
45318;SDS011;31057;48.498;32.260;2022-10-17T13:29:46;8.70;;;5.75;;
45318;SDS011;31057;48.498;32.260;2022-10-17T13:32:48;12.85;;;5.88;;
45318;SDS011;31057;48.498;32.260;2022-10-17T13:35:50;12.45;;;5.20;;
45318;SDS011;31057;48.498;32.260;2022-10-17T13:39:05;10.15;;;6.18;;
45318;SDS011;31057;48.498;32.260;2022-10-17T13:42:47;17.00;;;6.13;;
45318;SDS011;31057;48.498;32.260;2022-10-17T13:45:45;6.82;;;4.93;;
45318;SDS011;31057;48.498;32.260;2022-10-17T13:48:50;8.80;;;6.00;;
45318;SDS011;31057;48.498;32.260;2022-10-17T13:51:53;14.18;;;8.10;;
45318;SDS011;31057;48.498;32.260;2022-10-17T13:55:07;22.67;;;10.32;;
45318;SDS011;31057;48.498;32.260;2022-10-17T13:58:17;13.80;;;7.68;;
45318;SDS011;31057;48.498;32.260;2022-10-17T14:01:20;12.07;;;7.13;;
45318;SDS011;31057;48.498;32.260;2022-10-17T14:04:22;13.32;;;7.07;;
45318;SDS011;31057;48.498;32.260;2022-10-17T14:07:41;11.38;;;6.22;;
45318;SDS011;31057;48.498;32.260;2022-10-17T14:11:12;12.65;;;7.30;;
45318;SDS011;31057;48.498;32.260;2022-10-17T14:14:19;12.10;;;5.80;;
45318;SDS011;31057;48.498;32.260;2022-10-17T14:17:25;8.60;;;5.28;;
45318;SDS011;31057;48.498;32.260;2022-10-17T14:20:30;9.70;;;5.25;;
45318;SDS011;31057;48.498;32.260;2022-10-17T14:24:11;12.82;;;5.72;;
45318;SDS011;31057;48.498;32.260;2022-10-17T14:30:33;19.48;;;7.57;;
45318;SDS011;31057;48.498;32.260;2022-10-17T14:33:57;19.05;;;7.63;;
45318;SDS011;31057;48.498;32.260;2022-10-17T14:37:01;13.70;;;7.30;;
45318;SDS011;31057;48.498;32.260;2022-10-17T14:40:16;16.10;;;6.95;;
45318;SDS011;31057;48.498;32.260;2022-10-17T14:43:24;10.93;;;5.10;;
45318;SDS011;31057;48.498;32.260;2022-10-17T14:46:29;10.77;;;5.18;;
45318;SDS011;31057;48.498;32.260;2022-10-17T14:52:39;8.80;;;4.82;;
45318;SDS011;31057;48.498;32.260;2022-10-17T14:55:53;15.70;;;5.97;;
45318;SDS011;31057;48.498;32.260;2022-10-17T14:58:59;12.45;;;4.75;;
45318;SDS011;31057;48.498;32.260;2022-10-17T15:02:03;9.18;;;4.80;;
45318;SDS011;31057;48.498;32.260;2022-10-17T15:05:05;6.15;;;4.40;;
45318;SDS011;31057;48.498;32.260;2022-10-17T15:08:13;8.93;;;4.70;;
45318;SDS011;31057;48.498;32.260;2022-10-17T15:11:16;16.33;;;5.78;;
45318;SDS011;31057;48.498;32.260;2022-10-17T15:14:18;10.30;;;5.15;;
45318;SDS011;31057;48.498;32.260;2022-10-17T15:17:27;8.73;;;4.88;;
45318;SDS011;31057;48.498;32.260;2022-10-17T15:20:33;11.90;;;5.45;;
45318;SDS011;31057;48.498;32.260;2022-10-17T15:23:35;16.05;;;5.75;;
45318;SDS011;31057;48.498;32.260;2022-10-17T15:26:37;8.27;;;5.97;;
45318;SDS011;31057;48.498;32.260;2022-10-17T15:29:39;16.98;;;6.10;;
45318;SDS011;31057;48.498;32.260;2022-10-17T15:32:41;13.70;;;6.93;;
45318;SDS011;31057;48.498;32.260;2022-10-17T15:35:43;12.73;;;6.68;;
45318;SDS011;31057;48.498;32.260;2022-10-17T15:38:45;13.95;;;7.80;;
45318;SDS011;31057;48.498;32.260;2022-10-17T15:41:48;13.73;;;8.43;;
45318;SDS011;31057;48.498;32.260;2022-10-17T15:44:50;16.48;;;8.95;;
45318;SDS011;31057;48.498;32.260;2022-10-17T15:47:53;18.85;;;10.85;;
45318;SDS011;31057;48.498;32.260;2022-10-17T15:50:57;23.02;;;12.65;;
45318;SDS011;31057;48.498;32.260;2022-10-17T15:53:59;44.63;;;30.48;;
45318;SDS011;31057;48.498;32.260;2022-10-17T15:57:01;53.33;;;33.90;;
45318;SDS011;31057;48.498;32.260;2022-10-17T16:00:04;79.32;;;49.75;;
45318;SDS011;31057;48.498;32.260;2022-10-17T16:03:15;81.70;;;52.20;;
45318;SDS011;31057;48.498;32.260;2022-10-17T16:06:18;84.03;;;50.90;;
45318;SDS011;31057;48.498;32.260;2022-10-17T16:09:20;96.97;;;58.90;;
45318;SDS011;31057;48.498;32.260;2022-10-17T16:12:25;106.95;;;65.20;;
45318;SDS011;31057;48.498;32.260;2022-10-17T16:15:29;122.32;;;75.32;;
45318;SDS011;31057;48.498;32.260;2022-10-17T16:18:31;123.60;;;81.88;;
45318;SDS011;31057;48.498;32.260;2022-10-17T16:21:34;126.50;;;82.35;;
45318;SDS011;31057;48.498;32.260;2022-10-17T16:24:37;122.55;;;77.45;;
45318;SDS011;31057;48.498;32.260;2022-10-17T16:27:39;111.47;;;69.82;;
45318;SDS011;31057;48.498;32.260;2022-10-17T16:30:41;115.20;;;77.25;;
45318;SDS011;31057;48.498;32.260;2022-10-17T16:33:46;146.05;;;90.40;;
45318;SDS011;31057;48.498;32.260;2022-10-17T16:36:50;183.45;;;105.15;;
45318;SDS011;31057;48.498;32.260;2022-10-17T16:39:52;178.53;;;111.83;;
45318;SDS011;31057;48.498;32.260;2022-10-17T16:42:54;193.25;;;111.30;;
45318;SDS011;31057;48.498;32.260;2022-10-17T16:45:56;152.15;;;90.53;;
45318;SDS011;31057;48.498;32.260;2022-10-17T16:48:59;144.85;;;88.55;;
45318;SDS011;31057;48.498;32.260;2022-10-17T16:52:01;170.13;;;101.15;;
45318;SDS011;31057;48.498;32.260;2022-10-17T16:55:03;181.15;;;105.50;;
45318;SDS011;31057;48.498;32.260;2022-10-17T16:58:05;177.50;;;100.82;;
45318;SDS011;31057;48.498;32.260;2022-10-17T17:01:08;142.27;;;87.30;;
45318;SDS011;31057;48.498;32.260;2022-10-17T17:04:13;138.18;;;82.53;;
45318;SDS011;31057;48.498;32.260;2022-10-17T17:07:15;147.98;;;84.30;;
45318;SDS011;31057;48.498;32.260;2022-10-17T17:10:19;133.77;;;79.57;;
45318;SDS011;31057;48.498;32.260;2022-10-17T17:13:21;148.60;;;81.93;;
45318;SDS011;31057;48.498;32.260;2022-10-17T17:16:23;152.23;;;88.80;;
45318;SDS011;31057;48.498;32.260;2022-10-17T17:19:27;153.02;;;90.63;;
45318;SDS011;31057;48.498;32.260;2022-10-17T17:22:29;128.48;;;75.07;;
45318;SDS011;31057;48.498;32.260;2022-10-17T17:25:32;121.35;;;73.40;;
45318;SDS011;31057;48.498;32.260;2022-10-17T17:28:35;132.38;;;78.55;;
45318;SDS011;31057;48.498;32.260;2022-10-17T17:31:38;134.02;;;80.13;;
45318;SDS011;31057;48.498;32.260;2022-10-17T17:34:40;164.52;;;101.50;;
45318;SDS011;31057;48.498;32.260;2022-10-17T17:37:42;174.25;;;103.25;;
45318;SDS011;31057;48.498;32.260;2022-10-17T17:40:45;151.73;;;90.78;;
45318;SDS011;31057;48.498;32.260;2022-10-17T17:43:51;167.73;;;96.90;;
45318;SDS011;31057;48.498;32.260;2022-10-17T17:46:53;174.05;;;97.80;;
45318;SDS011;31057;48.498;32.260;2022-10-17T17:49:55;216.73;;;115.18;;
45318;SDS011;31057;48.498;32.260;2022-10-17T17:52:57;155.48;;;101.10;;
45318;SDS011;31057;48.498;32.260;2022-10-17T17:56:04;175.73;;;110.90;;
45318;SDS011;31057;48.498;32.260;2022-10-17T17:59:08;146.10;;;86.25;;
45318;SDS011;31057;48.498;32.260;2022-10-17T18:02:13;146.75;;;88.57;;
45318;SDS011;31057;48.498;32.260;2022-10-17T18:05:16;134.43;;;80.18;;
